SCC: Mosport: GS qualifying times

Pos Num Class Team Time Gap To 1st Speed --- --- ----- ------------------------------ ---------- ------- ------- ------- 1. 97 GS Turner Motorsport 1:30.406 97.918 2. 99...

Pos Num Class Team                                 Time     Gap  To 1st   Speed
--- --- ----- ------------------------------ ---------- ------- ------- -------
 1.  97 GS    Turner Motorsport                1:30.406                  97.918
 2.  99 GS    Automatic Racing                 1:30.965   0.559   0.559  97.317
 3.  52 GS    Rehagen Racing                   1:31.256   0.291   0.850  97.006
 4.  79 GS    Kinetic Motorsports              1:31.348   0.092   0.942  96.909
 5.  55 GS    Hyper Sport                      1:31.406   0.058   1.000  96.847
 6.  82 GS    BRG/Group 88 Motorsports         1:31.584   0.178   1.178  96.659
 7.   5 GS    Blackforest Motorsports          1:31.634   0.050   1.228  96.606
 8.  90 GS    Automatic Racing                 1:31.635   0.001   1.229  96.605
 9.  41 GS    TRG                              1:31.746   0.111   1.340  96.488
10.  54 GS    Hyper Sport                      1:31.798   0.052   1.392  96.433
11.  96 GS    Turner Motorsport                1:31.885   0.087   1.479  96.342
12.  37 GS    JBS Racing                       1:31.897   0.012   1.491  96.330
13.  91 GS    Automatic Racing                 1:31.992   0.095   1.586  96.230
14.  38 GS    BGB Motorsports                  1:32.063   0.071   1.657  96.156
15.   4 GS    Blackforest Motorsports          1:32.088   0.025   1.682  96.130
16.  09 GS    Automatic Racing                 1:32.092   0.004   1.686  96.126
17.  25 GS    Fiorano/C-MAX Racing             1:32.121   0.029   1.715  96.095
18.  83 GS    BGB Motorsports                  1:32.355   0.234   1.949  95.852
19.  49 GS    Marcus Motorsports               1:32.488   0.133   2.082  95.714
20. 154 GS    Rehagen Racing                   1:33.173   0.685   2.767  95.010
21.  88 GS    Ranger Sports Racing             1:33.354   0.181   2.948  94.826
22.  39 GS    TRG                              1:33.562   0.208   3.156  94.615
23.  59 GS    Rehagen Racing                   1:33.647   0.085   3.241  94.529
24.  40 GS    TRG                              1:34.086   0.439   3.680  94.088
25.  87 GS    Ranger Sports Racing             1:35.040   0.954   4.634  93.144
26.  89 GS    Ranger Sports Racing             1:36.491   1.451   6.085  91.743
27.  42 GS    TRG                              1:53.262  16.771  22.856  78.159
28. 137 GS    JBS Motorsports                  2:24.291  31.029  53.885  61.351
29.  26 GS    Fiorano/C-MAX Racing              No Time

Write a comment
Show comments
About this article
Series Grand-Am
Teams Kinetic Motorsports , Rehagen Racing , Turner Motorsport , Automatic Racing